sensor_id;sensor_type;location;lat;lon;timestamp;P1;durP1;ratioP1;P2;durP2;ratioP2
77304;SDS011;66364;52.622;7.746;2023-04-07T00:00:23;14.60;;;13.05;;
77304;SDS011;66364;52.622;7.746;2023-04-07T00:02:26;13.62;;;12.03;;
77304;SDS011;66364;52.622;7.746;2023-04-07T00:04:27;15.72;;;13.48;;
77304;SDS011;66364;52.622;7.746;2023-04-07T00:06:28;14.83;;;13.32;;
77304;SDS011;66364;52.622;7.746;2023-04-07T00:08:29;15.35;;;13.83;;
77304;SDS011;66364;52.622;7.746;2023-04-07T00:10:30;15.67;;;13.80;;
77304;SDS011;66364;52.622;7.746;2023-04-07T00:12:31;13.87;;;12.53;;
77304;SDS011;66364;52.622;7.746;2023-04-07T00:14:32;13.70;;;12.30;;
77304;SDS011;66364;52.622;7.746;2023-04-07T00:16:32;14.93;;;13.53;;
77304;SDS011;66364;52.622;7.746;2023-04-07T00:18:33;14.18;;;12.75;;
77304;SDS011;66364;52.622;7.746;2023-04-07T00:20:34;15.53;;;13.90;;
77304;SDS011;66364;52.622;7.746;2023-04-07T00:22:35;15.18;;;13.58;;
77304;SDS011;66364;52.622;7.746;2023-04-07T00:24:36;14.07;;;12.68;;
77304;SDS011;66364;52.622;7.746;2023-04-07T00:26:38;16.32;;;14.73;;
77304;SDS011;66364;52.622;7.746;2023-04-07T00:28:39;16.73;;;14.98;;
77304;SDS011;66364;52.622;7.746;2023-04-07T00:30:39;15.30;;;13.80;;
77304;SDS011;66364;52.622;7.746;2023-04-07T00:32:40;15.30;;;13.00;;
77304;SDS011;66364;52.622;7.746;2023-04-07T00:34:42;13.40;;;12.10;;
77304;SDS011;66364;52.622;7.746;2023-04-07T00:36:43;14.37;;;12.87;;
77304;SDS011;66364;52.622;7.746;2023-04-07T00:38:44;14.10;;;12.67;;
77304;SDS011;66364;52.622;7.746;2023-04-07T00:40:45;14.50;;;13.10;;
77304;SDS011;66364;52.622;7.746;2023-04-07T00:42:45;15.07;;;13.57;;
77304;SDS011;66364;52.622;7.746;2023-04-07T00:44:47;13.68;;;12.35;;
77304;SDS011;66364;52.622;7.746;2023-04-07T00:46:48;14.68;;;13.18;;
77304;SDS011;66364;52.622;7.746;2023-04-07T00:49:02;14.87;;;13.47;;
77304;SDS011;66364;52.622;7.746;2023-04-07T00:51:03;14.03;;;12.63;;
77304;SDS011;66364;52.622;7.746;2023-04-07T00:53:05;14.78;;;13.35;;
77304;SDS011;66364;52.622;7.746;2023-04-07T00:55:06;14.25;;;12.90;;
77304;SDS011;66364;52.622;7.746;2023-04-07T00:57:08;14.45;;;12.95;;
77304;SDS011;66364;52.622;7.746;2023-04-07T00:59:09;16.77;;;14.20;;
77304;SDS011;66364;52.622;7.746;2023-04-07T01:01:23;14.33;;;12.83;;
77304;SDS011;66364;52.622;7.746;2023-04-07T01:03:32;14.53;;;13.03;;
77304;SDS011;66364;52.622;7.746;2023-04-07T01:05:41;16.02;;;14.53;;
77304;SDS011;66364;52.622;7.746;2023-04-07T01:07:54;13.75;;;12.35;;
77304;SDS011;66364;52.622;7.746;2023-04-07T01:10:08;14.07;;;12.68;;
77304;SDS011;66364;52.622;7.746;2023-04-07T01:12:14;14.40;;;12.75;;
77304;SDS011;66364;52.622;7.746;2023-04-07T01:14:21;15.80;;;13.80;;
77304;SDS011;66364;52.622;7.746;2023-04-07T01:16:33;14.78;;;13.32;;
77304;SDS011;66364;52.622;7.746;2023-04-07T01:18:41;15.40;;;13.80;;
77304;SDS011;66364;52.622;7.746;2023-04-07T01:20:47;14.05;;;12.65;;
77304;SDS011;66364;52.622;7.746;2023-04-07T01:22:55;14.05;;;12.65;;
77304;SDS011;66364;52.622;7.746;2023-04-07T01:29:56;14.78;;;12.68;;
77304;SDS011;66364;52.622;7.746;2023-04-07T01:32:01;15.13;;;13.53;;
77304;SDS011;66364;52.622;7.746;2023-04-07T01:34:04;14.95;;;13.55;;
77304;SDS011;66364;52.622;7.746;2023-04-07T01:36:08;16.97;;;14.28;;
77304;SDS011;66364;52.622;7.746;2023-04-07T01:38:09;15.60;;;13.45;;
77304;SDS011;66364;52.622;7.746;2023-04-07T01:40:12;16.65;;;14.90;;
77304;SDS011;66364;52.622;7.746;2023-04-07T01:42:14;16.57;;;14.25;;
77304;SDS011;66364;52.622;7.746;2023-04-07T01:44:15;15.55;;;13.90;;
77304;SDS011;66364;52.622;7.746;2023-04-07T01:46:17;15.63;;;14.03;;
77304;SDS011;66364;52.622;7.746;2023-04-07T01:48:18;17.05;;;14.98;;
77304;SDS011;66364;52.622;7.746;2023-04-07T01:50:20;17.20;;;15.40;;
77304;SDS011;66364;52.622;7.746;2023-04-07T01:52:21;14.60;;;13.18;;
77304;SDS011;66364;52.622;7.746;2023-04-07T01:54:23;16.07;;;14.47;;
77304;SDS011;66364;52.622;7.746;2023-04-07T01:58:55;17.12;;;15.38;;
77304;SDS011;66364;52.622;7.746;2023-04-07T02:00:55;16.87;;;15.17;;
77304;SDS011;66364;52.622;7.746;2023-04-07T02:02:57;15.65;;;14.05;;
77304;SDS011;66364;52.622;7.746;2023-04-07T02:05:02;17.57;;;14.35;;
77304;SDS011;66364;52.622;7.746;2023-04-07T02:07:07;16.45;;;14.95;;
77304;SDS011;66364;52.622;7.746;2023-04-07T02:09:15;17.45;;;14.95;;
77304;SDS011;66364;52.622;7.746;2023-04-07T02:11:19;16.25;;;14.55;;
77304;SDS011;66364;52.622;7.746;2023-04-07T02:13:22;15.30;;;13.80;;
77304;SDS011;66364;52.622;7.746;2023-04-07T02:15:24;17.32;;;15.03;;
77304;SDS011;66364;52.622;7.746;2023-04-07T02:17:26;15.15;;;13.65;;
77304;SDS011;66364;52.622;7.746;2023-04-07T02:19:28;18.48;;;15.32;;
77304;SDS011;66364;52.622;7.746;2023-04-07T02:21:29;15.80;;;13.98;;
77304;SDS011;66364;52.622;7.746;2023-04-07T02:23:34;16.93;;;15.18;;
77304;SDS011;66364;52.622;7.746;2023-04-07T02:25:35;16.30;;;14.70;;
77304;SDS011;66364;52.622;7.746;2023-04-07T02:27:36;17.47;;;15.67;;
77304;SDS011;66364;52.622;7.746;2023-04-07T02:29:37;16.02;;;14.20;;
77304;SDS011;66364;52.622;7.746;2023-04-07T02:31:38;15.23;;;13.73;;
77304;SDS011;66364;52.622;7.746;2023-04-07T02:35:59;15.08;;;13.53;;
77304;SDS011;66364;52.622;7.746;2023-04-07T02:38:00;14.37;;;12.93;;
77304;SDS011;66364;52.622;7.746;2023-04-07T02:40:02;15.63;;;14.00;;
77304;SDS011;66364;52.622;7.746;2023-04-07T02:42:04;14.73;;;13.22;;
77304;SDS011;66364;52.622;7.746;2023-04-07T02:44:05;15.58;;;13.58;;
77304;SDS011;66364;52.622;7.746;2023-04-07T02:46:15;16.10;;;14.17;;
77304;SDS011;66364;52.622;7.746;2023-04-07T02:48:16;16.87;;;15.18;;
77304;SDS011;66364;52.622;7.746;2023-04-07T02:50:17;16.07;;;14.45;;
77304;SDS011;66364;52.622;7.746;2023-04-07T02:52:19;16.62;;;14.58;;
77304;SDS011;66364;52.622;7.746;2023-04-07T02:54:20;16.40;;;14.10;;
77304;SDS011;66364;52.622;7.746;2023-04-07T02:56:21;17.33;;;15.40;;
77304;SDS011;66364;52.622;7.746;2023-04-07T02:58:22;16.17;;;14.57;;
77304;SDS011;66364;52.622;7.746;2023-04-07T03:00:23;16.60;;;14.90;;
77304;SDS011;66364;52.622;7.746;2023-04-07T03:02:25;17.65;;;15.80;;
77304;SDS011;66364;52.622;7.746;2023-04-07T03:04:26;17.62;;;15.85;;
77304;SDS011;66364;52.622;7.746;2023-04-07T03:06:27;16.93;;;15.10;;
77304;SDS011;66364;52.622;7.746;2023-04-07T03:08:28;17.20;;;14.93;;
77304;SDS011;66364;52.622;7.746;2023-04-07T03:10:29;17.70;;;16.00;;
77304;SDS011;66364;52.622;7.746;2023-04-07T03:12:30;19.03;;;16.90;;
77304;SDS011;66364;52.622;7.746;2023-04-07T03:14:30;18.03;;;16.10;;
77304;SDS011;66364;52.622;7.746;2023-04-07T03:16:31;17.77;;;15.90;;
77304;SDS011;66364;52.622;7.746;2023-04-07T03:18:33;19.05;;;17.15;;
77304;SDS011;66364;52.622;7.746;2023-04-07T03:20:34;18.40;;;16.50;;
77304;SDS011;66364;52.622;7.746;2023-04-07T03:22:34;17.23;;;15.17;;
77304;SDS011;66364;52.622;7.746;2023-04-07T03:24:35;18.83;;;16.80;;
77304;SDS011;66364;52.622;7.746;2023-04-07T03:26:37;18.07;;;16.25;;
77304;SDS011;66364;52.622;7.746;2023-04-07T03:28:44;18.15;;;16.25;;
77304;SDS011;66364;52.622;7.746;2023-04-07T03:30:45;18.62;;;15.85;;
77304;SDS011;66364;52.622;7.746;2023-04-07T03:32:46;19.17;;;16.52;;
77304;SDS011;66364;52.622;7.746;2023-04-07T03:34:48;16.97;;;15.18;;
77304;SDS011;66364;52.622;7.746;2023-04-07T03:36:49;18.48;;;16.55;;
77304;SDS011;66364;52.622;7.746;2023-04-07T03:38:50;17.77;;;15.90;;
77304;SDS011;66364;52.622;7.746;2023-04-07T03:40:51;21.07;;;17.00;;
77304;SDS011;66364;52.622;7.746;2023-04-07T03:42:52;17.63;;;15.40;;
77304;SDS011;66364;52.622;7.746;2023-04-07T03:44:53;17.45;;;15.50;;
77304;SDS011;66364;52.622;7.746;2023-04-07T03:46:54;17.80;;;16.00;;
77304;SDS011;66364;52.622;7.746;2023-04-07T03:48:55;18.37;;;16.23;;
77304;SDS011;66364;52.622;7.746;2023-04-07T03:50:57;18.62;;;16.35;;
77304;SDS011;66364;52.622;7.746;2023-04-07T03:52:58;18.43;;;16.57;;
77304;SDS011;66364;52.622;7.746;2023-04-07T03:54:59;16.07;;;14.37;;
77304;SDS011;66364;52.622;7.746;2023-04-07T03:57:00;18.63;;;16.73;;
77304;SDS011;66364;52.622;7.746;2023-04-07T03:59:01;16.20;;;14.50;;
77304;SDS011;66364;52.622;7.746;2023-04-07T04:01:02;17.67;;;15.72;;
77304;SDS011;66364;52.622;7.746;2023-04-07T04:03:03;18.00;;;16.30;;
77304;SDS011;66364;52.622;7.746;2023-04-07T04:05:05;16.62;;;14.93;;
77304;SDS011;66364;52.622;7.746;2023-04-07T04:07:06;17.77;;;16.07;;
77304;SDS011;66364;52.622;7.746;2023-04-07T04:09:07;16.23;;;14.50;;
77304;SDS011;66364;52.622;7.746;2023-04-07T04:11:08;17.60;;;15.65;;
77304;SDS011;66364;52.622;7.746;2023-04-07T04:13:09;17.50;;;15.35;;
77304;SDS011;66364;52.622;7.746;2023-04-07T04:15:10;16.07;;;14.47;;
77304;SDS011;66364;52.622;7.746;2023-04-07T04:17:13;16.40;;;14.70;;
77304;SDS011;66364;52.622;7.746;2023-04-07T04:19:14;15.83;;;14.28;;
77304;SDS011;66364;52.622;7.746;2023-04-07T04:21:15;16.47;;;15.00;;
77304;SDS011;66364;52.622;7.746;2023-04-07T04:23:16;15.23;;;13.80;;
77304;SDS011;66364;52.622;7.746;2023-04-07T04:25:20;14.53;;;13.13;;
77304;SDS011;66364;52.622;7.746;2023-04-07T04:27:21;14.75;;;13.28;;
77304;SDS011;66364;52.622;7.746;2023-04-07T04:29:22;16.75;;;14.25;;
77304;SDS011;66364;52.622;7.746;2023-04-07T04:31:23;15.63;;;13.20;;
77304;SDS011;66364;52.622;7.746;2023-04-07T04:33:26;14.15;;;12.65;;
77304;SDS011;66364;52.622;7.746;2023-04-07T04:35:28;15.55;;;13.93;;
77304;SDS011;66364;52.622;7.746;2023-04-07T04:37:30;16.23;;;13.55;;
77304;SDS011;66364;52.622;7.746;2023-04-07T04:39:33;13.53;;;12.20;;
77304;SDS011;66364;52.622;7.746;2023-04-07T04:41:34;15.13;;;13.58;;
77304;SDS011;66364;52.622;7.746;2023-04-07T04:43:36;16.07;;;14.40;;
77304;SDS011;66364;52.622;7.746;2023-04-07T04:45:37;15.48;;;13.88;;
77304;SDS011;66364;52.622;7.746;2023-04-07T04:47:39;18.12;;;14.05;;
77304;SDS011;66364;52.622;7.746;2023-04-07T04:49:42;14.90;;;13.15;;
77304;SDS011;66364;52.622;7.746;2023-04-07T04:51:44;15.80;;;14.10;;
77304;SDS011;66364;52.622;7.746;2023-04-07T04:53:45;13.62;;;12.23;;
77304;SDS011;66364;52.622;7.746;2023-04-07T04:55:48;16.73;;;15.13;;
77304;SDS011;66364;52.622;7.746;2023-04-07T04:57:50;14.68;;;13.40;;
77304;SDS011;66364;52.622;7.746;2023-04-07T04:59:52;14.58;;;13.08;;
77304;SDS011;66364;52.622;7.746;2023-04-07T05:01:53;14.10;;;12.70;;
77304;SDS011;66364;52.622;7.746;2023-04-07T05:03:56;14.83;;;13.20;;
77304;SDS011;66364;52.622;7.746;2023-04-07T05:05:57;14.18;;;12.73;;
77304;SDS011;66364;52.622;7.746;2023-04-07T05:07:59;15.13;;;12.53;;
77304;SDS011;66364;52.622;7.746;2023-04-07T05:10:02;15.05;;;13.45;;
77304;SDS011;66364;52.622;7.746;2023-04-07T05:12:05;14.13;;;12.75;;
77304;SDS011;66364;52.622;7.746;2023-04-07T05:14:08;15.10;;;13.55;;
77304;SDS011;66364;52.622;7.746;2023-04-07T05:16:21;15.85;;;14.25;;
77304;SDS011;66364;52.622;7.746;2023-04-07T05:18:23;15.72;;;14.03;;
77304;SDS011;66364;52.622;7.746;2023-04-07T05:20:25;15.28;;;13.80;;
77304;SDS011;66364;52.622;7.746;2023-04-07T05:22:28;16.60;;;14.20;;
77304;SDS011;66364;52.622;7.746;2023-04-07T05:24:31;17.80;;;15.03;;
77304;SDS011;66364;52.622;7.746;2023-04-07T05:26:33;17.10;;;15.40;;
77304;SDS011;66364;52.622;7.746;2023-04-07T05:28:36;15.20;;;13.80;;
77304;SDS011;66364;52.622;7.746;2023-04-07T05:30:39;20.37;;;15.40;;
77304;SDS011;66364;52.622;7.746;2023-04-07T05:32:40;16.02;;;14.33;;
77304;SDS011;66364;52.622;7.746;2023-04-07T05:34:41;16.30;;;14.67;;
77304;SDS011;66364;52.622;7.746;2023-04-07T05:36:43;18.15;;;16.02;;
77304;SDS011;66364;52.622;7.746;2023-04-07T05:38:45;18.00;;;15.45;;
77304;SDS011;66364;52.622;7.746;2023-04-07T05:40:46;18.30;;;16.40;;
77304;SDS011;66364;52.622;7.746;2023-04-07T05:42:48;18.65;;;16.70;;
77304;SDS011;66364;52.622;7.746;2023-04-07T05:44:50;17.75;;;16.00;;
77304;SDS011;66364;52.622;7.746;2023-04-07T05:47:03;21.85;;;18.45;;
77304;SDS011;66364;52.622;7.746;2023-04-07T05:49:04;19.42;;;17.32;;
77304;SDS011;66364;52.622;7.746;2023-04-07T05:51:05;18.63;;;16.83;;
77304;SDS011;66364;52.622;7.746;2023-04-07T05:53:07;20.37;;;18.10;;
77304;SDS011;66364;52.622;7.746;2023-04-07T05:55:09;18.32;;;16.42;;
77304;SDS011;66364;52.622;7.746;2023-04-07T05:57:10;19.27;;;17.27;;
77304;SDS011;66364;52.622;7.746;2023-04-07T05:59:11;20.02;;;17.05;;
77304;SDS011;66364;52.622;7.746;2023-04-07T06:01:13;20.85;;;18.20;;
77304;SDS011;66364;52.622;7.746;2023-04-07T06:03:14;20.50;;;18.23;;
77304;SDS011;66364;52.622;7.746;2023-04-07T06:05:15;20.67;;;18.47;;
77304;SDS011;66364;52.622;7.746;2023-04-07T06:07:16;20.70;;;18.60;;
77304;SDS011;66364;52.622;7.746;2023-04-07T06:09:17;20.43;;;18.33;;
77304;SDS011;66364;52.622;7.746;2023-04-07T06:11:18;20.02;;;17.82;;
77304;SDS011;66364;52.622;7.746;2023-04-07T06:13:19;19.37;;;17.30;;
77304;SDS011;66364;52.622;7.746;2023-04-07T06:15:20;19.50;;;17.50;;
77304;SDS011;66364;52.622;7.746;2023-04-07T06:17:22;23.32;;;17.10;;
77304;SDS011;66364;52.622;7.746;2023-04-07T06:19:22;21.03;;;18.67;;
77304;SDS011;66364;52.622;7.746;2023-04-07T06:21:23;20.95;;;18.75;;
77304;SDS011;66364;52.622;7.746;2023-04-07T06:23:24;20.07;;;17.50;;
77304;SDS011;66364;52.622;7.746;2023-04-07T06:25:25;18.83;;;16.93;;
77304;SDS011;66364;52.622;7.746;2023-04-07T06:27:26;20.87;;;18.63;;
77304;SDS011;66364;52.622;7.746;2023-04-07T06:29:28;20.17;;;17.90;;
77304;SDS011;66364;52.622;7.746;2023-04-07T06:31:29;18.75;;;16.90;;
77304;SDS011;66364;52.622;7.746;2023-04-07T06:33:30;19.17;;;16.90;;
77304;SDS011;66364;52.622;7.746;2023-04-07T06:35:31;19.77;;;16.50;;
77304;SDS011;66364;52.622;7.746;2023-04-07T06:37:33;18.35;;;16.45;;
77304;SDS011;66364;52.622;7.746;2023-04-07T06:39:34;16.10;;;14.50;;
77304;SDS011;66364;52.622;7.746;2023-04-07T06:41:35;18.03;;;16.10;;
77304;SDS011;66364;52.622;7.746;2023-04-07T06:43:36;17.50;;;15.30;;
77304;SDS011;66364;52.622;7.746;2023-04-07T06:45:38;16.73;;;15.13;;
77304;SDS011;66364;52.622;7.746;2023-04-07T06:47:39;18.23;;;16.32;;
77304;SDS011;66364;52.622;7.746;2023-04-07T06:49:40;16.50;;;14.80;;
77304;SDS011;66364;52.622;7.746;2023-04-07T06:51:41;17.47;;;15.70;;
77304;SDS011;66364;52.622;7.746;2023-04-07T06:53:42;15.50;;;13.97;;
77304;SDS011;66364;52.622;7.746;2023-04-07T06:55:43;16.12;;;14.47;;
77304;SDS011;66364;52.622;7.746;2023-04-07T06:57:43;15.80;;;14.20;;
77304;SDS011;66364;52.622;7.746;2023-04-07T06:59:44;16.27;;;14.57;;
77304;SDS011;66364;52.622;7.746;2023-04-07T07:01:45;19.27;;;14.67;;
77304;SDS011;66364;52.622;7.746;2023-04-07T07:03:46;17.60;;;15.80;;
77304;SDS011;66364;52.622;7.746;2023-04-07T07:05:47;16.73;;;15.00;;
77304;SDS011;66364;52.622;7.746;2023-04-07T07:07:49;15.95;;;14.00;;
77304;SDS011;66364;52.622;7.746;2023-04-07T07:09:51;15.53;;;13.90;;
77304;SDS011;66364;52.622;7.746;2023-04-07T07:11:53;15.00;;;13.45;;
77304;SDS011;66364;52.622;7.746;2023-04-07T07:13:54;17.03;;;14.87;;
77304;SDS011;66364;52.622;7.746;2023-04-07T07:15:55;15.90;;;14.20;;
77304;SDS011;66364;52.622;7.746;2023-04-07T07:17:56;15.32;;;12.82;;
77304;SDS011;66364;52.622;7.746;2023-04-07T07:19:57;13.57;;;12.27;;
77304;SDS011;66364;52.622;7.746;2023-04-07T07:21:58;13.38;;;12.07;;
77304;SDS011;66364;52.622;7.746;2023-04-07T07:24:00;13.88;;;12.35;;
77304;SDS011;66364;52.622;7.746;2023-04-07T07:26:02;14.07;;;12.40;;
77304;SDS011;66364;52.622;7.746;2023-04-07T07:28:03;13.50;;;12.23;;
77304;SDS011;66364;52.622;7.746;2023-04-07T07:30:05;14.50;;;13.10;;
77304;SDS011;66364;52.622;7.746;2023-04-07T07:32:06;14.58;;;13.08;;
77304;SDS011;66364;52.622;7.746;2023-04-07T07:34:08;14.07;;;12.68;;
77304;SDS011;66364;52.622;7.746;2023-04-07T07:36:09;14.28;;;12.78;;
77304;SDS011;66364;52.622;7.746;2023-04-07T07:38:10;12.73;;;11.43;;
77304;SDS011;66364;52.622;7.746;2023-04-07T07:40:11;13.83;;;12.47;;
77304;SDS011;66364;52.622;7.746;2023-04-07T07:42:13;12.40;;;11.20;;
77304;SDS011;66364;52.622;7.746;2023-04-07T07:44:14;14.95;;;13.50;;
77304;SDS011;66364;52.622;7.746;2023-04-07T07:46:15;13.60;;;12.20;;
77304;SDS011;66364;52.622;7.746;2023-04-07T07:48:17;13.32;;;11.93;;
77304;SDS011;66364;52.622;7.746;2023-04-07T07:50:18;13.93;;;12.63;;
77304;SDS011;66364;52.622;7.746;2023-04-07T07:52:19;12.95;;;11.60;;
77304;SDS011;66364;52.622;7.746;2023-04-07T07:54:20;12.73;;;11.50;;
77304;SDS011;66364;52.622;7.746;2023-04-07T07:56:20;12.80;;;11.60;;
77304;SDS011;66364;52.622;7.746;2023-04-07T07:58:21;12.47;;;11.27;;
77304;SDS011;66364;52.622;7.746;2023-04-07T08:00:22;12.33;;;11.03;;
77304;SDS011;66364;52.622;7.746;2023-04-07T08:02:23;12.60;;;11.30;;
77304;SDS011;66364;52.622;7.746;2023-04-07T08:04:25;10.50;;;9.50;;
77304;SDS011;66364;52.622;7.746;2023-04-07T08:06:26;12.00;;;10.78;;
77304;SDS011;66364;52.622;7.746;2023-04-07T08:08:27;11.08;;;10.08;;
77304;SDS011;66364;52.622;7.746;2023-04-07T08:10:28;11.70;;;10.60;;
77304;SDS011;66364;52.622;7.746;2023-04-07T08:12:29;11.60;;;10.32;;
77304;SDS011;66364;52.622;7.746;2023-04-07T08:14:30;11.07;;;9.97;;
77304;SDS011;66364;52.622;7.746;2023-04-07T08:16:31;10.10;;;9.10;;
77304;SDS011;66364;52.622;7.746;2023-04-07T08:18:32;15.63;;;11.00;;
77304;SDS011;66364;52.622;7.746;2023-04-07T08:20:33;11.48;;;10.38;;
77304;SDS011;66364;52.622;7.746;2023-04-07T08:22:34;11.57;;;10.40;;
77304;SDS011;66364;52.622;7.746;2023-04-07T08:24:36;11.63;;;10.43;;
77304;SDS011;66364;52.622;7.746;2023-04-07T08:26:37;12.53;;;11.33;;
77304;SDS011;66364;52.622;7.746;2023-04-07T08:28:38;13.43;;;12.13;;
77304;SDS011;66364;52.622;7.746;2023-04-07T08:30:40;14.00;;;12.70;;
77304;SDS011;66364;52.622;7.746;2023-04-07T08:32:42;15.03;;;11.57;;
77304;SDS011;66364;52.622;7.746;2023-04-07T08:34:44;14.23;;;12.82;;
77304;SDS011;66364;52.622;7.746;2023-04-07T08:36:45;13.20;;;11.80;;
77304;SDS011;66364;52.622;7.746;2023-04-07T08:38:46;13.90;;;12.50;;
77304;SDS011;66364;52.622;7.746;2023-04-07T08:40:52;14.23;;;12.82;;
77304;SDS011;66364;52.622;7.746;2023-04-07T08:42:52;13.55;;;12.18;;
77304;SDS011;66364;52.622;7.746;2023-04-07T08:45:01;14.43;;;13.00;;
77304;SDS011;66364;52.622;7.746;2023-04-07T08:46:58;14.58;;;13.18;;
77304;SDS011;66364;52.622;7.746;2023-04-07T08:49:01;13.60;;;12.20;;
77304;SDS011;66364;52.622;7.746;2023-04-07T08:51:05;12.73;;;11.53;;
77304;SDS011;66364;52.622;7.746;2023-04-07T08:53:07;12.73;;;11.43;;
77304;SDS011;66364;52.622;7.746;2023-04-07T08:55:11;11.12;;;10.08;;
77304;SDS011;66364;52.622;7.746;2023-04-07T08:57:13;12.07;;;11.08;;
77304;SDS011;66364;52.622;7.746;2023-04-07T08:59:15;13.75;;;11.80;;
77304;SDS011;66364;52.622;7.746;2023-04-07T09:01:16;11.43;;;10.30;;
77304;SDS011;66364;52.622;7.746;2023-04-07T09:03:19;11.73;;;10.70;;
77304;SDS011;66364;52.622;7.746;2023-04-07T09:05:22;12.18;;;11.15;;
77304;SDS011;66364;52.622;7.746;2023-04-07T09:07:23;11.55;;;10.45;;
77304;SDS011;66364;52.622;7.746;2023-04-07T09:09:24;13.35;;;10.80;;
77304;SDS011;66364;52.622;7.746;2023-04-07T09:11:26;12.58;;;11.28;;
77304;SDS011;66364;52.622;7.746;2023-04-07T09:13:28;10.70;;;9.15;;
77304;SDS011;66364;52.622;7.746;2023-04-07T09:15:29;9.57;;;8.67;;
77304;SDS011;66364;52.622;7.746;2023-04-07T09:17:31;9.88;;;8.98;;
77304;SDS011;66364;52.622;7.746;2023-04-07T09:19:33;10.70;;;9.70;;
77304;SDS011;66364;52.622;7.746;2023-04-07T09:21:47;10.05;;;9.15;;
77304;SDS011;66364;52.622;7.746;2023-04-07T09:23:52;9.98;;;9.03;;
77304;SDS011;66364;52.622;7.746;2023-04-07T09:25:55;8.30;;;7.50;;
77304;SDS011;66364;52.622;7.746;2023-04-07T09:28:01;9.73;;;8.55;;
77304;SDS011;66364;52.622;7.746;2023-04-07T09:30:11;8.98;;;8.18;;
77304;SDS011;66364;52.622;7.746;2023-04-07T09:34:37;8.53;;;7.72;;
77304;SDS011;66364;52.622;7.746;2023-04-07T09:36:40;8.80;;;7.72;;
77304;SDS011;66364;52.622;7.746;2023-04-07T09:38:42;7.20;;;6.60;;
77304;SDS011;66364;52.622;7.746;2023-04-07T09:40:44;7.75;;;7.05;;
77304;SDS011;66364;52.622;7.746;2023-04-07T09:42:45;7.87;;;7.20;;
77304;SDS011;66364;52.622;7.746;2023-04-07T09:44:46;7.25;;;6.65;;
77304;SDS011;66364;52.622;7.746;2023-04-07T09:46:50;8.03;;;7.33;;
77304;SDS011;66364;52.622;7.746;2023-04-07T09:49:00;7.67;;;6.97;;
77304;SDS011;66364;52.622;7.746;2023-04-07T09:51:06;7.62;;;7.00;;
77304;SDS011;66364;52.622;7.746;2023-04-07T09:53:06;8.05;;;7.33;;
77304;SDS011;66364;52.622;7.746;2023-04-07T09:55:07;8.47;;;7.63;;
77304;SDS011;66364;52.622;7.746;2023-04-07T09:57:09;9.63;;;8.15;;
77304;SDS011;66364;52.622;7.746;2023-04-07T09:59:11;8.25;;;7.53;;
77304;SDS011;66364;52.622;7.746;2023-04-07T10:01:15;8.90;;;8.00;;
77304;SDS011;66364;52.622;7.746;2023-04-07T10:03:17;9.10;;;8.25;;
77304;SDS011;66364;52.622;7.746;2023-04-07T10:05:18;11.53;;;10.38;;
77304;SDS011;66364;52.622;7.746;2023-04-07T10:07:20;9.50;;;8.60;;
77304;SDS011;66364;52.622;7.746;2023-04-07T10:09:25;8.40;;;7.70;;
77304;SDS011;66364;52.622;7.746;2023-04-07T10:11:27;9.30;;;8.23;;
77304;SDS011;66364;52.622;7.746;2023-04-07T10:13:29;10.05;;;9.05;;
77304;SDS011;66364;52.622;7.746;2023-04-07T10:15:31;9.25;;;8.45;;
77304;SDS011;66364;52.622;7.746;2023-04-07T10:17:33;10.28;;;9.35;;
77304;SDS011;66364;52.622;7.746;2023-04-07T10:19:37;10.10;;;9.10;;
77304;SDS011;66364;52.622;7.746;2023-04-07T10:21:39;10.95;;;10.05;;
77304;SDS011;66364;52.622;7.746;2023-04-07T10:24:18;10.43;;;9.45;;
77304;SDS011;66364;52.622;7.746;2023-04-07T10:26:15;10.82;;;9.85;;
77304;SDS011;66364;52.622;7.746;2023-04-07T10:28:17;10.65;;;9.73;;
77304;SDS011;66364;52.622;7.746;2023-04-07T10:30:22;10.55;;;9.65;;
77304;SDS011;66364;52.622;7.746;2023-04-07T10:32:25;10.90;;;9.90;;
77304;SDS011;66364;52.622;7.746;2023-04-07T10:37:12;9.90;;;9.00;;
77304;SDS011;66364;52.622;7.746;2023-04-07T10:41:51;9.50;;;8.58;;
77304;SDS011;66364;52.622;7.746;2023-04-07T10:43:36;11.45;;;10.35;;
77304;SDS011;66364;52.622;7.746;2023-04-07T10:48:09;10.18;;;9.10;;
77304;SDS011;66364;52.622;7.746;2023-04-07T10:50:14;9.05;;;8.25;;
77304;SDS011;66364;52.622;7.746;2023-04-07T10:52:22;10.28;;;9.38;;
77304;SDS011;66364;52.622;7.746;2023-04-07T10:54:24;11.00;;;9.90;;
77304;SDS011;66364;52.622;7.746;2023-04-07T10:56:24;8.37;;;7.77;;
77304;SDS011;66364;52.622;7.746;2023-04-07T10:58:26;10.43;;;9.53;;
77304;SDS011;66364;52.622;7.746;2023-04-07T11:00:32;8.90;;;8.10;;
77304;SDS011;66364;52.622;7.746;2023-04-07T11:02:33;8.87;;;8.10;;
77304;SDS011;66364;52.622;7.746;2023-04-07T11:04:35;8.88;;;7.95;;
77304;SDS011;66364;52.622;7.746;2023-04-07T11:06:45;10.23;;;8.03;;
77304;SDS011;66364;52.622;7.746;2023-04-07T11:08:46;10.70;;;8.70;;
77304;SDS011;66364;52.622;7.746;2023-04-07T11:10:48;10.70;;;9.83;;
77304;SDS011;66364;52.622;7.746;2023-04-07T11:12:59;10.28;;;9.38;;
77304;SDS011;66364;52.622;7.746;2023-04-07T11:15:18;11.93;;;10.93;;
77304;SDS011;66364;52.622;7.746;2023-04-07T11:17:20;10.78;;;9.93;;
77304;SDS011;66364;52.622;7.746;2023-04-07T11:19:21;11.80;;;10.70;;
77304;SDS011;66364;52.622;7.746;2023-04-07T11:21:22;11.00;;;10.00;;
77304;SDS011;66364;52.622;7.746;2023-04-07T11:23:24;13.35;;;11.22;;
77304;SDS011;66364;52.622;7.746;2023-04-07T11:25:25;11.48;;;10.38;;
77304;SDS011;66364;52.622;7.746;2023-04-07T11:27:26;11.55;;;10.45;;
77304;SDS011;66364;52.622;7.746;2023-04-07T11:29:29;11.78;;;10.78;;
77304;SDS011;66364;52.622;7.746;2023-04-07T11:31:32;11.60;;;10.50;;
77304;SDS011;66364;52.622;7.746;2023-04-07T11:33:33;11.55;;;10.55;;
77304;SDS011;66364;52.622;7.746;2023-04-07T11:35:34;10.50;;;9.50;;
77304;SDS011;66364;52.622;7.746;2023-04-07T11:37:36;10.13;;;9.23;;
77304;SDS011;66364;52.622;7.746;2023-04-07T11:39:37;10.77;;;9.80;;
77304;SDS011;66364;52.622;7.746;2023-04-07T11:41:44;11.38;;;10.25;;
77304;SDS011;66364;52.622;7.746;2023-04-07T11:43:48;10.32;;;9.45;;
77304;SDS011;66364;52.622;7.746;2023-04-07T11:46:06;10.82;;;9.58;;
77304;SDS011;66364;52.622;7.746;2023-04-07T11:48:25;12.30;;;11.12;;
77304;SDS011;66364;52.622;7.746;2023-04-07T11:50:38;10.82;;;9.78;;
77304;SDS011;66364;52.622;7.746;2023-04-07T11:52:42;9.85;;;8.95;;
77304;SDS011;66364;52.622;7.746;2023-04-07T11:54:45;12.60;;;11.43;;
77304;SDS011;66364;52.622;7.746;2023-04-07T11:56:47;11.53;;;10.58;;
77304;SDS011;66364;52.622;7.746;2023-04-07T11:58:48;11.30;;;10.30;;
77304;SDS011;66364;52.622;7.746;2023-04-07T12:00:53;12.35;;;11.25;;
77304;SDS011;66364;52.622;7.746;2023-04-07T12:02:55;11.75;;;10.70;;
77304;SDS011;66364;52.622;7.746;2023-04-07T12:04:56;12.03;;;10.90;;
77304;SDS011;66364;52.622;7.746;2023-04-07T12:07:07;14.17;;;12.87;;
77304;SDS011;66364;52.622;7.746;2023-04-07T12:09:23;13.22;;;12.13;;
77304;SDS011;66364;52.622;7.746;2023-04-07T12:11:28;13.78;;;12.47;;
77304;SDS011;66364;52.622;7.746;2023-04-07T12:13:29;13.88;;;12.63;;
77304;SDS011;66364;52.622;7.746;2023-04-07T12:15:31;13.45;;;12.20;;
77304;SDS011;66364;52.622;7.746;2023-04-07T12:17:31;14.27;;;12.80;;
77304;SDS011;66364;52.622;7.746;2023-04-07T12:19:32;14.60;;;13.07;;